Time;durP1;ratioP1;P1;durP2;ratioP2;P2;SDS_P1;SDS_P2;PMS_P1;PMS_P2;Temp;Humidity;BMP_temperature;BMP_pressure;BME280_temperature;BME280_humidity;BME280_pressure;Samples;Min_cycle;Max_cycle;Signal;HPM_P1;HPM_P2
2024/02/01 00:00:27;;;;;;;7.82;5.40;;;;;;;;;;5075778;28;20063;-56
2024/02/01 00:02:53;;;;;;;7.30;5.55;;;;;;;;;;5075952;28;20520;-57
2024/02/01 00:05:20;;;;;;;8.82;5.60;;;;;;;;;;5073964;28;20517;-56
2024/02/01 00:07:47;;;;;;;12.10;6.28;;;;;;;;;;5064022;28;20071;-54
2024/02/01 00:10:14;;;;;;;9.63;6.20;;;;;;;;;;5075703;28;20409;-55
2024/02/01 00:12:41;;;;;;;9.20;6.40;;;;;;;;;;5075339;28;20430;-57
2024/02/01 00:15:10;;;;;;;9.20;6.45;;;;;;;;;;5075438;28;20052;-57
2024/02/01 00:17:37;;;;;;;8.13;6.43;;;;;;;;;;5075364;28;20057;-55
2024/02/01 00:20:04;;;;;;;8.48;6.07;;;;;;;;;;5073112;28;20064;-56
2024/02/01 00:22:31;;;;;;;7.43;6.60;;;;;;;;;;5056063;28;20486;-56
2024/02/01 00:24:59;;;;;;;8.68;6.57;;;;;;;;;;5055702;28;20053;-57
2024/02/01 00:27:26;;;;;;;9.55;6.70;;;;;;;;;;5055612;28;20049;-56
2024/02/01 00:29:53;;;;;;;10.88;6.55;;;;;;;;;;5055828;28;20056;-55
2024/02/01 00:32:21;;;;;;;8.98;6.78;;;;;;;;;;5055748;28;20053;-56
2024/02/01 00:34:48;;;;;;;10.57;6.90;;;;;;;;;;5055125;28;20053;-56
2024/02/01 00:37:15;;;;;;;9.10;6.75;;;;;;;;;;5055852;28;20049;-56
2024/02/01 00:39:41;;;;;;;10.15;7.00;;;;;;;;;;5054922;28;20060;-55
2024/02/01 00:42:08;;;;;;;10.95;7.32;;;;;;;;;;5055131;28;20052;-56
2024/02/01 00:44:35;;;;;;;9.63;6.78;;;;;;;;;;5055640;28;20060;-56
2024/02/01 00:47:02;;;;;;;10.70;7.30;;;;;;;;;;5055423;28;20049;-56
2024/02/01 00:49:30;;;;;;;10.93;8.13;;;;;;;;;;5055414;28;20059;-56
2024/02/01 00:51:57;;;;;;;9.60;7.60;;;;;;;;;;5055657;28;20060;-56
2024/02/01 00:54:24;;;;;;;13.07;8.75;;;;;;;;;;5055233;28;20394;-55
2024/02/01 00:56:51;;;;;;;12.93;9.40;;;;;;;;;;5055270;28;20107;-56
2024/02/01 00:59:18;;;;;;;11.40;9.00;;;;;;;;;;5054670;28;20402;-55
2024/02/01 01:01:44;;;;;;;19.70;11.25;;;;;;;;;;5075177;28;20064;-56
2024/02/01 01:04:15;;;;;;;16.55;11.50;;;;;;;;;;5075341;28;20052;-56
2024/02/01 01:06:44;;;;;;;17.30;13.43;;;;;;;;;;5061662;28;20261;-57
2024/02/01 01:09:10;;;;;;;17.50;12.93;;;;;;;;;;5054980;28;20128;-57
2024/02/01 01:11:38;;;;;;;20.10;13.73;;;;;;;;;;5054610;28;20060;-57
2024/02/01 01:14:05;;;;;;;24.88;13.77;;;;;;;;;;5054426;28;20060;-56
2024/02/01 01:16:32;;;;;;;26.63;15.32;;;;;;;;;;5054278;28;20049;-55
2024/02/01 01:18:58;;;;;;;30.55;16.80;;;;;;;;;;5054645;28;20056;-57
2024/02/01 01:21:25;;;;;;;30.00;18.15;;;;;;;;;;5054761;28;20060;-58
2024/02/01 01:23:53;;;;;;;30.35;19.95;;;;;;;;;;5054727;28;20060;-58
2024/02/01 01:26:21;;;;;;;38.75;22.05;;;;;;;;;;5054293;28;20060;-59
2024/02/01 01:28:47;;;;;;;31.08;18.95;;;;;;;;;;5054735;28;20049;-59
2024/02/01 01:31:14;;;;;;;27.30;18.33;;;;;;;;;;5054734;28;20064;-59
2024/02/01 01:33:41;;;;;;;34.83;20.40;;;;;;;;;;5069606;28;20057;-59
2024/02/01 01:36:07;;;;;;;34.97;18.98;;;;;;;;;;5069169;28;20049;-59
2024/02/01 01:38:34;;;;;;;36.05;19.83;;;;;;;;;;5054114;28;20440;-59
2024/02/01 01:41:02;;;;;;;35.88;20.63;;;;;;;;;;5053846;28;20131;-60
2024/02/01 01:43:29;;;;;;;27.52;17.08;;;;;;;;;;5054039;28;20474;-60
2024/02/01 01:46:01;;;;;;;30.98;18.50;;;;;;;;;;5053959;28;20049;-59
2024/02/01 01:48:28;;;;;;;32.65;20.30;;;;;;;;;;5054190;28;20387;-60
2024/02/01 01:50:55;;;;;;;34.13;20.08;;;;;;;;;;5054644;28;20053;-59
2024/02/01 01:53:22;;;;;;;38.80;21.92;;;;;;;;;;5053702;28;20044;-60
2024/02/01 01:55:49;;;;;;;27.55;19.00;;;;;;;;;;5053542;28;20049;-59
2024/02/01 01:58:17;;;;;;;30.63;20.30;;;;;;;;;;5053890;28;20053;-59
2024/02/01 02:00:44;;;;;;;34.47;20.90;;;;;;;;;;5053919;28;20052;-60
2024/02/01 02:03:11;;;;;;;38.17;22.17;;;;;;;;;;5053969;28;20049;-60
2024/02/01 02:05:38;;;;;;;45.83;23.95;;;;;;;;;;5053487;28;20052;-60
2024/02/01 02:08:07;;;;;;;32.10;19.00;;;;;;;;;;5053693;28;20053;-60
2024/02/01 02:10:34;;;;;;;30.52;19.08;;;;;;;;;;5065389;28;20056;-60
2024/02/01 02:13:01;;;;;;;28.40;18.38;;;;;;;;;;5073697;28;20409;-60
2024/02/01 02:15:33;;;;;;;34.63;21.08;;;;;;;;;;5073606;28;20052;-60
2024/02/01 02:18:00;;;;;;;26.55;17.15;;;;;;;;;;5073533;28;20383;-59
2024/02/01 02:20:28;;;;;;;29.92;19.02;;;;;;;;;;5073616;28;20053;-60
2024/02/01 02:22:56;;;;;;;26.77;17.25;;;;;;;;;;5055666;28;20060;-60
2024/02/01 02:25:23;;;;;;;23.40;16.00;;;;;;;;;;5053142;28;20057;-61
2024/02/01 02:27:50;;;;;;;23.38;16.60;;;;;;;;;;5071914;28;20497;-60
2024/02/01 02:30:17;;;;;;;28.52;18.67;;;;;;;;;;5073416;28;20060;-60
2024/02/01 02:32:44;;;;;;;24.77;16.45;;;;;;;;;;5072975;28;20482;-60
2024/02/01 02:35:13;;;;;;;27.30;16.70;;;;;;;;;;5073538;28;20053;-60
2024/02/01 02:37:50;;;;;;;27.83;15.40;;;;;;;;;;5067456;28;20044;-61
2024/02/01 02:40:18;;;;;;;26.73;16.70;;;;;;;;;;5073032;28;20391;-60
2024/02/01 02:42:46;;;;;;;27.27;16.63;;;;;;;;;;5073053;28;20067;-60
2024/02/01 02:45:12;;;;;;;18.90;13.45;;;;;;;;;;5068055;28;20045;-60
2024/02/01 02:47:39;;;;;;;21.33;14.70;;;;;;;;;;5052617;28;20051;-60
2024/02/01 02:50:08;;;;;;;21.17;15.05;;;;;;;;;;5053182;28;20053;-61
2024/02/01 02:52:36;;;;;;;23.23;14.85;;;;;;;;;;5052618;28;20429;-60
2024/02/01 02:55:03;;;;;;;39.60;19.63;;;;;;;;;;5053101;28;20053;-60
2024/02/01 02:57:31;;;;;;;22.20;14.90;;;;;;;;;;5052761;28;20049;-60
2024/02/01 02:59:58;;;;;;;25.55;15.05;;;;;;;;;;5052823;28;20052;-61
2024/02/01 03:02:25;;;;;;;23.70;14.43;;;;;;;;;;5053130;28;20060;-60
2024/02/01 03:04:52;;;;;;;25.88;16.85;;;;;;;;;;5053036;28;20049;-61
2024/02/01 03:07:18;;;;;;;22.63;15.43;;;;;;;;;;5053312;28;20049;-61
2024/02/01 03:09:45;;;;;;;24.83;14.98;;;;;;;;;;5053320;28;20049;-60
2024/02/01 03:12:12;;;;;;;26.35;17.60;;;;;;;;;;5052728;28;20111;-60
2024/02/01 03:14:40;;;;;;;23.75;14.90;;;;;;;;;;5053116;28;20056;-60
2024/02/01 03:17:09;;;;;;;21.88;14.25;;;;;;;;;;5052503;28;20057;-60
2024/02/01 03:19:36;;;;;;;24.17;14.60;;;;;;;;;;5052907;28;20140;-60
2024/02/01 03:22:03;;;;;;;23.38;15.77;;;;;;;;;;5054425;28;20493;-60
2024/02/01 03:24:31;;;;;;;24.25;14.48;;;;;;;;;;5071611;28;20098;-60
2024/02/01 03:26:58;;;;;;;20.40;14.20;;;;;;;;;;5077068;28;20048;-62
2024/02/01 03:29:25;;;;;;;17.98;12.80;;;;;;;;;;5076847;28;20056;-61
2024/02/01 03:31:53;;;;;;;19.33;14.15;;;;;;;;;;5076964;28;20059;-60
2024/02/01 03:34:21;;;;;;;18.95;13.30;;;;;;;;;;5076583;28;20052;-61
2024/02/01 03:36:49;;;;;;;21.30;14.00;;;;;;;;;;5067514;28;20053;-60
2024/02/01 03:39:26;;;;;;;16.45;12.40;;;;;;;;;;5056507;28;20065;-60
2024/02/01 03:41:54;;;;;;;18.50;13.02;;;;;;;;;;5056879;28;20052;-60
2024/02/01 03:44:21;;;;;;;17.13;11.90;;;;;;;;;;5056407;28;20060;-60
2024/02/01 03:46:48;;;;;;;15.40;11.68;;;;;;;;;;5056374;28;20063;-60
2024/02/01 03:49:16;;;;;;;18.40;13.65;;;;;;;;;;5056399;28;20061;-60
2024/02/01 03:51:43;;;;;;;15.73;12.30;;;;;;;;;;5056433;28;20051;-60
2024/02/01 03:54:10;;;;;;;15.20;11.63;;;;;;;;;;5056398;28;20057;-60
2024/02/01 03:56:37;;;;;;;13.13;10.57;;;;;;;;;;5056220;28;20410;-60
2024/02/01 03:59:04;;;;;;;14.55;11.23;;;;;;;;;;5056267;28;20053;-60
2024/02/01 04:01:31;;;;;;;17.73;12.43;;;;;;;;;;5056471;28;20060;-62
2024/02/01 04:03:58;;;;;;;16.70;11.50;;;;;;;;;;5056398;28;20056;-59
2024/02/01 04:06:27;;;;;;;17.85;12.85;;;;;;;;;;5056213;28;20056;-60
2024/02/01 04:08:54;;;;;;;14.83;11.47;;;;;;;;;;5056207;28;20056;-59
2024/02/01 04:11:21;;;;;;;15.07;12.10;;;;;;;;;;5055727;28;20482;-59
2024/02/01 04:13:48;;;;;;;14.00;10.68;;;;;;;;;;5055884;28;20375;-60
2024/02/01 04:16:16;;;;;;;14.70;10.68;;;;;;;;;;5054389;28;20059;-60
2024/02/01 04:18:43;;;;;;;14.75;11.32;;;;;;;;;;5055235;28;20067;-59
2024/02/01 04:21:10;;;;;;;14.38;11.65;;;;;;;;;;5056122;28;20049;-59
2024/02/01 04:23:38;;;;;;;13.77;11.05;;;;;;;;;;5062722;28;20049;-60
2024/02/01 04:26:05;;;;;;;17.55;12.48;;;;;;;;;;5075696;28;20112;-59
2024/02/01 04:28:33;;;;;;;15.95;11.85;;;;;;;;;;5075756;28;20075;-60
2024/02/01 04:31:01;;;;;;;15.60;12.10;;;;;;;;;;5060999;28;20494;-61
2024/02/01 04:33:28;;;;;;;16.30;12.25;;;;;;;;;;5055560;28;20057;-60
2024/02/01 04:35:55;;;;;;;14.25;11.73;;;;;;;;;;5055576;28;20053;-60
2024/02/01 04:38:25;;;;;;;14.55;11.93;;;;;;;;;;5055373;28;20410;-60
2024/02/01 04:40:53;;;;;;;13.60;10.23;;;;;;;;;;5054896;28;20064;-59
2024/02/01 04:43:21;;;;;;;15.10;12.35;;;;;;;;;;5057639;28;20064;-59
2024/02/01 04:45:48;;;;;;;13.55;10.95;;;;;;;;;;5055055;28;20053;-59
2024/02/01 04:48:14;;;;;;;14.20;12.00;;;;;;;;;;5055363;28;20367;-59
2024/02/01 04:50:41;;;;;;;15.48;12.43;;;;;;;;;;5055084;28;20057;-60
2024/02/01 04:53:08;;;;;;;15.13;12.43;;;;;;;;;;5055049;28;20049;-59
2024/02/01 04:55:35;;;;;;;13.10;11.65;;;;;;;;;;5055301;28;20057;-59
2024/02/01 04:58:03;;;;;;;17.25;13.95;;;;;;;;;;5055176;28;20060;-59
2024/02/01 05:00:31;;;;;;;16.48;13.95;;;;;;;;;;5055099;28;20140;-60
2024/02/01 05:02:57;;;;;;;18.60;15.57;;;;;;;;;;5054714;28;20056;-60
2024/02/01 05:05:25;;;;;;;18.77;15.50;;;;;;;;;;5055043;28;20057;-60
2024/02/01 05:07:52;;;;;;;22.90;16.63;;;;;;;;;;5054627;28;20060;-60
2024/02/01 05:10:19;;;;;;;21.63;17.65;;;;;;;;;;5055082;28;20068;-61
2024/02/01 05:12:45;;;;;;;21.27;17.63;;;;;;;;;;5054683;28;20072;-60
2024/02/01 05:15:14;;;;;;;26.23;19.63;;;;;;;;;;5054878;28;20064;-60
2024/02/01 05:17:41;;;;;;;24.35;20.23;;;;;;;;;;5054480;28;20060;-60
2024/02/01 05:20:10;;;;;;;25.33;20.40;;;;;;;;;;5054928;28;20056;-60
2024/02/01 05:22:37;;;;;;;28.05;20.73;;;;;;;;;;5055330;28;20057;-61
2024/02/01 05:25:14;;;;;;;28.25;22.38;;;;;;;;;;5054022;28;20053;-60
2024/02/01 05:27:43;;;;;;;27.15;20.95;;;;;;;;;;5054678;28;20072;-60
2024/02/01 05:30:11;;;;;;;29.85;20.83;;;;;;;;;;5054428;28;20455;-59
2024/02/01 05:32:48;;;;;;;26.60;20.38;;;;;;;;;;5061758;28;20405;-60
2024/02/01 05:35:15;;;;;;;28.23;20.60;;;;;;;;;;5074372;28;20409;-60
2024/02/01 05:37:46;;;;;;;27.83;21.15;;;;;;;;;;5061574;28;20060;-60
2024/02/01 05:40:16;;;;;;;29.25;21.13;;;;;;;;;;5071298;28;20057;-60
2024/02/01 05:42:43;;;;;;;25.50;21.20;;;;;;;;;;5074014;28;20075;-59
2024/02/01 05:45:10;;;;;;;28.42;21.63;;;;;;;;;;5073592;28;20409;-60
2024/02/01 05:47:38;;;;;;;27.83;22.40;;;;;;;;;;5073850;28;20052;-59
2024/02/01 05:50:06;;;;;;;29.77;22.17;;;;;;;;;;5074079;28;20502;-60
2024/02/01 05:52:34;;;;;;;27.70;21.17;;;;;;;;;;5061102;28;20053;-60
2024/02/01 05:55:05;;;;;;;27.27;22.17;;;;;;;;;;5053940;28;20048;-60
2024/02/01 05:57:32;;;;;;;31.17;22.42;;;;;;;;;;5053987;28;20060;-59
2024/02/01 05:59:59;;;;;;;29.70;23.58;;;;;;;;;;5053781;28;20052;-60
2024/02/01 06:02:26;;;;;;;31.02;23.60;;;;;;;;;;5053904;28;20454;-59
2024/02/01 06:04:54;;;;;;;32.25;25.17;;;;;;;;;;5054010;28;20056;-60
2024/02/01 06:07:21;;;;;;;33.63;25.02;;;;;;;;;;5057523;28;20055;-60
2024/02/01 06:09:48;;;;;;;29.17;24.23;;;;;;;;;;5073784;28;20049;-60
2024/02/01 06:12:14;;;;;;;34.25;26.48;;;;;;;;;;5073140;28;20056;-60
2024/02/01 06:14:41;;;;;;;32.85;24.88;;;;;;;;;;5073173;28;20063;-59
2024/02/01 06:17:08;;;;;;;32.20;24.95;;;;;;;;;;5073689;28;20063;-59
2024/02/01 06:19:35;;;;;;;34.05;26.00;;;;;;;;;;5073588;28;20044;-60
2024/02/01 06:22:05;;;;;;;35.22;26.95;;;;;;;;;;5065031;28;20053;-60
2024/02/01 06:24:33;;;;;;;36.15;28.27;;;;;;;;;;5053510;28;20056;-59
2024/02/01 06:26:59;;;;;;;34.60;26.65;;;;;;;;;;5053373;28;20072;-60
2024/02/01 06:29:26;;;;;;;37.85;25.90;;;;;;;;;;5053356;28;20071;-59
2024/02/01 06:31:53;;;;;;;37.58;28.02;;;;;;;;;;5053139;28;20064;-60
2024/02/01 06:34:26;;;;;;;32.38;24.35;;;;;;;;;;5059305;28;20048;-60
2024/02/01 06:36:58;;;;;;;26.27;20.63;;;;;;;;;;5064305;28;20048;-60
2024/02/01 06:39:48;;;;;;;28.00;22.15;;;;;;;;;;5060798;28;20048;-60
2024/02/01 06:42:23;;;;;;;27.13;18.80;;;;;;;;;;5058442;28;20055;-61
2024/02/01 06:45:05;;;;;;;28.67;19.35;;;;;;;;;;5052491;28;20063;-60
2024/02/01 06:47:38;;;;;;;27.65;17.80;;;;;;;;;;5052629;28;20406;-60
2024/02/01 06:50:15;;;;;;;24.80;16.92;;;;;;;;;;5053685;28;20509;-59
2024/02/01 06:52:43;;;;;;;23.23;15.43;;;;;;;;;;5058914;28;20518;-60
2024/02/01 06:55:43;;;;;;;20.27;13.02;;;;;;;;;;5058073;28;20048;-59
2024/02/01 06:58:13;;;;;;;20.80;11.45;;;;;;;;;;5067789;28;20342;-60
2024/02/01 07:01:01;;;;;;;18.08;9.88;;;;;;;;;;5068112;28;20056;-59
2024/02/01 07:03:51;;;;;;;14.48;8.98;;;;;;;;;;5070734;28;20052;-60
2024/02/01 07:06:39;;;;;;;15.70;7.75;;;;;;;;;;5067164;28;20056;-59
2024/02/01 07:09:27;;;;;;;11.38;7.10;;;;;;;;;;5061088;28;20500;-59
2024/02/01 07:12:15;;;;;;;12.95;7.88;;;;;;;;;;5057693;28;20044;-59
2024/02/01 07:14:48;;;;;;;14.23;8.05;;;;;;;;;;5052829;28;20057;-59
2024/02/01 07:17:31;;;;;;;12.68;8.00;;;;;;;;;;5052690;28;20048;-59
2024/02/01 07:19:57;;;;;;;15.77;7.72;;;;;;;;;;5054386;28;20486;-59
2024/02/01 07:22:49;;;;;;;15.02;8.23;;;;;;;;;;5072692;28;20056;-59
2024/02/01 07:25:33;;;;;;;15.27;7.30;;;;;;;;;;5061356;28;20045;-60
2024/02/01 07:58:14;;;;;;;20.85;3.83;;;;;;;;;;5077495;28;20056;-59
2024/02/01 08:00:48;;;;;;;16.60;3.47;;;;;;;;;;5070756;28;20048;-60
2024/02/01 08:03:42;;;;;;;18.75;4.57;;;;;;;;;;5071093;28;20052;-59
2024/02/01 08:08:53;;;;;;;17.83;3.65;;;;;;;;;;5054583;28;20060;-59
2024/02/01 08:11:21;;;;;;;21.80;3.67;;;;;;;;;;5063377;28;20059;-59
2024/02/01 08:13:49;;;;;;;20.25;4.07;;;;;;;;;;5076224;28;20405;-59
2024/02/01 08:16:18;;;;;;;26.70;4.17;;;;;;;;;;5073859;28;20052;-41
2024/02/01 08:18:45;;;;;;;15.13;4.07;;;;;;;;;;5068651;28;20048;-59
2024/02/01 08:21:16;;;;;;;15.95;3.70;;;;;;;;;;5065955;28;20075;-59
2024/02/01 08:23:44;;;;;;;17.00;3.65;;;;;;;;;;5071020;28;20517;-59
2024/02/01 08:26:12;;;;;;;22.58;4.25;;;;;;;;;;5069509;28;20057;-60
2024/02/01 08:28:39;;;;;;;15.38;3.88;;;;;;;;;;5069025;28;20075;-59
2024/02/01 08:31:08;;;;;;;15.23;3.55;;;;;;;;;;5070201;28;20064;-61
2024/02/01 08:33:42;;;;;;;19.27;4.53;;;;;;;;;;5065930;28;20052;-59
2024/02/01 08:36:10;;;;;;;14.07;4.05;;;;;;;;;;5066745;28;20056;-59
2024/02/01 08:38:38;;;;;;;13.98;3.60;;;;;;;;;;5063992;28;20402;-59
2024/02/01 08:41:05;;;;;;;13.68;3.90;;;;;;;;;;5073620;28;20497;-59
2024/02/01 08:43:36;;;;;;;12.52;3.40;;;;;;;;;;5062985;28;20410;-60
2024/02/01 08:46:05;;;;;;;13.73;3.80;;;;;;;;;;5074262;28;20056;-60
2024/02/01 08:48:32;;;;;;;12.98;4.05;;;;;;;;;;5071676;28;20045;-60
2024/02/01 08:51:00;;;;;;;12.38;3.90;;;;;;;;;;5063656;28;20045;-59
2024/02/01 08:53:27;;;;;;;12.63;3.80;;;;;;;;;;5069054;28;20052;-60
2024/02/01 08:55:54;;;;;;;14.48;4.28;;;;;;;;;;5067888;28;20468;-58
2024/02/01 08:58:20;;;;;;;16.77;4.68;;;;;;;;;;5060110;28;20053;-59
2024/02/01 09:00:49;;;;;;;13.65;4.10;;;;;;;;;;5062294;28;20055;-59
2024/02/01 09:03:16;;;;;;;14.45;3.97;;;;;;;;;;5068319;28;20057;-59
2024/02/01 09:05:43;;;;;;;14.98;4.28;;;;;;;;;;5069552;28;20049;-60
2024/02/01 09:08:12;;;;;;;17.85;4.85;;;;;;;;;;5055215;28;20057;-59
2024/02/01 09:10:50;;;;;;;19.50;5.57;;;;;;;;;;5070479;28;20132;-59
2024/02/01 09:13:17;;;;;;;14.48;4.82;;;;;;;;;;5058834;28;20475;-58
2024/02/01 09:15:43;;;;;;;17.70;5.60;;;;;;;;;;5055816;28;20056;-59
2024/02/01 09:18:10;;;;;;;15.23;5.78;;;;;;;;;;5064073;28;20494;-59
2024/02/01 09:20:37;;;;;;;17.98;6.05;;;;;;;;;;5057381;28;20462;-59
2024/02/01 09:23:04;;;;;;;16.77;5.38;;;;;;;;;;5056845;28;20383;-59
2024/02/01 09:25:33;;;;;;;13.65;4.72;;;;;;;;;;5070793;28;20052;-58
2024/02/01 09:28:00;;;;;;;12.90;4.43;;;;;;;;;;5062667;28;20060;-58
2024/02/01 09:30:28;;;;;;;17.92;5.05;;;;;;;;;;5067781;28;20044;-59
2024/02/01 09:32:55;;;;;;;13.43;4.68;;;;;;;;;;5058751;28;20048;-59
2024/02/01 09:35:22;;;;;;;16.67;4.93;;;;;;;;;;5066651;28;20048;-59
2024/02/01 09:37:51;;;;;;;15.63;4.65;;;;;;;;;;5058862;28;20044;-59
2024/02/01 09:40:18;;;;;;;19.67;5.15;;;;;;;;;;5063929;28;20045;-58
2024/02/01 09:42:47;;;;;;;17.92;5.03;;;;;;;;;;5054419;28;20071;-59
2024/02/01 09:45:15;;;;;;;18.98;5.35;;;;;;;;;;5061361;28;20064;-59
2024/02/01 09:47:46;;;;;;;15.43;5.00;;;;;;;;;;5080002;28;20044;-59
2024/02/01 09:50:14;;;;;;;17.77;4.95;;;;;;;;;;5059429;28;20052;-59
2024/02/01 09:52:44;;;;;;;19.70;5.03;;;;;;;;;;5053775;28;20052;-59
2024/02/01 09:55:16;;;;;;;15.10;5.10;;;;;;;;;;5065512;28;20053;-59
2024/02/01 09:57:44;;;;;;;18.40;4.80;;;;;;;;;;5072028;28;20048;-59
2024/02/01 10:00:14;;;;;;;16.30;4.63;;;;;;;;;;5072511;28;20437;-59
2024/02/01 10:02:42;;;;;;;19.30;5.18;;;;;;;;;;5068848;28;20052;-58
2024/02/01 10:05:09;;;;;;;17.10;5.03;;;;;;;;;;5063779;28;20061;-59
2024/02/01 10:07:36;;;;;;;14.52;4.65;;;;;;;;;;5064833;28;20112;-59
2024/02/01 10:10:05;;;;;;;15.48;4.93;;;;;;;;;;5066091;28;20053;-58
2024/02/01 10:12:32;;;;;;;12.48;4.55;;;;;;;;;;5053713;28;20072;-59
2024/02/01 10:14:59;;;;;;;14.10;4.13;;;;;;;;;;5053204;28;20064;-59
2024/02/01 10:17:28;;;;;;;13.55;4.32;;;;;;;;;;5053608;28;20064;-59
2024/02/01 10:19:54;;;;;;;15.90;4.43;;;;;;;;;;5056531;28;20047;-59
2024/02/01 10:22:21;;;;;;;15.05;4.65;;;;;;;;;;5064121;28;20052;-59
2024/02/01 10:24:49;;;;;;;13.15;4.28;;;;;;;;;;5053241;28;20068;-60
2024/02/01 10:27:19;;;;;;;15.20;4.97;;;;;;;;;;5053435;28;20056;-59
2024/02/01 10:29:46;;;;;;;12.82;3.90;;;;;;;;;;5053456;28;20528;-59
2024/02/01 10:32:14;;;;;;;18.42;4.65;;;;;;;;;;5052403;28;20057;-59
2024/02/01 10:34:45;;;;;;;16.42;4.45;;;;;;;;;;5053453;28;20425;-59
2024/02/01 10:37:13;;;;;;;13.63;4.22;;;;;;;;;;5053906;28;20060;-59
2024/02/01 10:39:44;;;;;;;15.63;4.30;;;;;;;;;;5052358;28;20057;-59
2024/02/01 10:42:13;;;;;;;13.43;4.63;;;;;;;;;;5052606;28;20056;-59
2024/02/01 10:44:41;;;;;;;16.42;4.68;;;;;;;;;;5052936;28;20057;-58
2024/02/01 10:47:12;;;;;;;18.17;5.15;;;;;;;;;;5052533;28;20048;-59
2024/02/01 10:49:42;;;;;;;13.55;4.53;;;;;;;;;;5053204;28;20049;-58
2024/02/01 10:52:11;;;;;;;15.75;4.22;;;;;;;;;;5052191;28;20243;-59
2024/02/01 10:54:38;;;;;;;14.05;4.47;;;;;;;;;;5053135;28;20049;-58
2024/02/01 10:57:06;;;;;;;12.52;4.10;;;;;;;;;;5052515;28;20049;-59
2024/02/01 10:59:33;;;;;;;14.45;4.32;;;;;;;;;;5052716;28;20053;-58
2024/02/01 11:02:00;;;;;;;9.88;3.78;;;;;;;;;;5054781;28;20053;-58
2024/02/01 11:04:33;;;;;;;14.25;5.35;;;;;;;;;;5052509;28;20049;-58
2024/02/01 11:07:01;;;;;;;10.63;3.45;;;;;;;;;;5061598;28;20068;-58
2024/02/01 11:09:29;;;;;;;13.35;3.67;;;;;;;;;;5066449;28;20059;-59
2024/02/01 11:11:56;;;;;;;11.63;3.63;;;;;;;;;;5054257;28;20407;-59
2024/02/01 11:14:24;;;;;;;16.27;4.72;;;;;;;;;;5070910;28;20051;-58
2024/02/01 11:16:52;;;;;;;13.88;3.80;;;;;;;;;;5071920;28;20409;-58
2024/02/01 11:19:22;;;;;;;15.23;4.13;;;;;;;;;;5065079;28;20049;-58
2024/02/01 11:21:50;;;;;;;16.83;4.15;;;;;;;;;;5061274;28;20067;-58
2024/02/01 11:24:21;;;;;;;12.05;3.90;;;;;;;;;;5054011;28;20061;-58
2024/02/01 11:26:54;;;;;;;12.70;4.18;;;;;;;;;;5051620;28;20076;-58
2024/02/01 11:29:24;;;;;;;12.70;3.67;;;;;;;;;;5063544;28;20383;-58
2024/02/01 11:31:54;;;;;;;11.60;4.32;;;;;;;;;;5066362;28;20041;-60
2024/02/01 11:34:22;;;;;;;11.80;4.05;;;;;;;;;;5052130;28;20410;-58
2024/02/01 11:36:49;;;;;;;12.38;3.92;;;;;;;;;;5050442;28;20053;-60
2024/02/01 11:39:15;;;;;;;13.68;3.92;;;;;;;;;;5051586;28;20067;-58
2024/02/01 11:41:46;;;;;;;13.88;3.47;;;;;;;;;;5052188;28;20513;-59
2024/02/01 11:44:14;;;;;;;11.05;3.35;;;;;;;;;;5055061;28;20055;-58
2024/02/01 11:46:45;;;;;;;14.33;3.50;;;;;;;;;;5056185;28;20068;-58
2024/02/01 11:49:19;;;;;;;10.00;3.00;;;;;;;;;;5074794;28;20044;-58
2024/02/01 11:51:46;;;;;;;12.32;3.95;;;;;;;;;;5063734;28;20402;-57
2024/02/01 11:54:12;;;;;;;14.95;4.38;;;;;;;;;;5056140;28;20076;-58
2024/02/01 11:56:39;;;;;;;15.20;4.13;;;;;;;;;;5061105;28;20052;-58
2024/02/01 11:59:08;;;;;;;13.02;3.80;;;;;;;;;;5060114;28;20063;-58
2024/02/01 12:01:36;;;;;;;10.25;3.35;;;;;;;;;;5055630;28;20052;-58
2024/02/01 12:04:03;;;;;;;10.05;3.28;;;;;;;;;;5060219;28;20060;-58
2024/02/01 12:06:29;;;;;;;11.57;4.00;;;;;;;;;;5073469;28;20048;-57
2024/02/01 12:08:59;;;;;;;10.02;3.67;;;;;;;;;;5067370;28;20049;-58
2024/02/01 12:11:33;;;;;;;10.63;3.70;;;;;;;;;;5065951;28;20458;-57
2024/02/01 12:14:02;;;;;;;11.90;3.33;;;;;;;;;;5066507;28;20135;-57
2024/02/01 12:16:30;;;;;;;10.03;3.47;;;;;;;;;;5075719;28;20056;-58
2024/02/01 12:18:59;;;;;;;11.80;4.28;;;;;;;;;;5074983;28;20405;-58
2024/02/01 12:21:29;;;;;;;11.60;3.50;;;;;;;;;;5071733;28;20056;-59
2024/02/01 12:23:59;;;;;;;10.90;3.28;;;;;;;;;;5062244;28;20056;-57
2024/02/01 12:26:26;;;;;;;9.27;3.13;;;;;;;;;;5055273;28;20049;-57
2024/02/01 12:28:54;;;;;;;8.90;3.58;;;;;;;;;;5063719;28;20057;-58
2024/02/01 12:31:21;;;;;;;11.05;3.78;;;;;;;;;;5062974;28;20056;-58
2024/02/01 12:33:47;;;;;;;12.02;3.83;;;;;;;;;;5055868;28;20061;-58
2024/02/01 12:36:16;;;;;;;11.80;3.40;;;;;;;;;;5055371;28;20403;-59
2024/02/01 12:38:44;;;;;;;10.37;4.00;;;;;;;;;;5068177;28;20385;-59
2024/02/01 12:41:11;;;;;;;12.45;3.67;;;;;;;;;;5068537;28;20060;-58
2024/02/01 12:43:38;;;;;;;13.18;3.72;;;;;;;;;;5066038;28;20044;-57
2024/02/01 12:46:05;;;;;;;12.93;3.80;;;;;;;;;;5057875;28;20059;-58
2024/02/01 12:48:32;;;;;;;11.43;3.00;;;;;;;;;;5068862;28;20048;-57
2024/02/01 12:50:59;;;;;;;14.30;3.78;;;;;;;;;;5056856;28;20052;-59
2024/02/01 12:53:27;;;;;;;12.73;3.70;;;;;;;;;;5061697;28;20052;-58
2024/02/01 12:55:54;;;;;;;9.98;3.80;;;;;;;;;;5067977;28;20052;-59
2024/02/01 12:58:21;;;;;;;12.52;3.65;;;;;;;;;;5070170;28;20049;-58
2024/02/01 13:00:48;;;;;;;11.60;3.85;;;;;;;;;;5062058;28;20060;-60
2024/02/01 13:03:15;;;;;;;11.02;3.72;;;;;;;;;;5064625;28;20056;-59
2024/02/01 13:05:44;;;;;;;11.10;3.70;;;;;;;;;;5072868;28;20049;-59
2024/02/01 13:08:14;;;;;;;9.65;3.55;;;;;;;;;;5062784;28;20056;-59
2024/02/01 13:10:44;;;;;;;9.80;3.72;;;;;;;;;;5054103;28;20060;-59
2024/02/01 13:13:11;;;;;;;9.45;3.75;;;;;;;;;;5056922;28;20482;-59
2024/02/01 13:15:38;;;;;;;12.10;3.60;;;;;;;;;;5066492;28;20053;-59
2024/02/01 13:18:11;;;;;;;9.70;3.75;;;;;;;;;;5073259;28;20056;-59
2024/02/01 13:20:38;;;;;;;11.73;3.75;;;;;;;;;;5054677;28;20049;-59
2024/02/01 13:23:08;;;;;;;11.98;3.40;;;;;;;;;;5061122;28;20049;-59
2024/02/01 13:25:36;;;;;;;11.52;3.65;;;;;;;;;;5059109;28;20047;-59
2024/02/01 13:28:04;;;;;;;9.65;3.45;;;;;;;;;;5064393;28;20048;-58
2024/02/01 13:30:31;;;;;;;10.93;3.72;;;;;;;;;;5056917;28;20063;-59
2024/02/01 13:32:59;;;;;;;11.02;4.85;;;;;;;;;;5074145;28;20055;-59
2024/02/01 13:35:26;;;;;;;15.02;5.65;;;;;;;;;;5082395;28;20051;-59
2024/02/01 13:37:55;;;;;;;15.52;5.18;;;;;;;;;;5068330;28;20060;-59
2024/02/01 13:40:22;;;;;;;14.48;4.35;;;;;;;;;;5061717;28;20390;-59
2024/02/01 13:42:52;;;;;;;12.38;3.97;;;;;;;;;;5061805;28;20052;-59
2024/02/01 13:45:21;;;;;;;15.38;4.53;;;;;;;;;;5065936;28;20057;-59
2024/02/01 13:47:50;;;;;;;12.50;4.07;;;;;;;;;;5055632;28;20053;-59
2024/02/01 13:50:17;;;;;;;9.57;3.97;;;;;;;;;;5061832;28;20053;-59
2024/02/01 13:52:43;;;;;;;12.82;4.32;;;;;;;;;;5067026;28;20055;-59
2024/02/01 13:55:11;;;;;;;14.70;4.57;;;;;;;;;;5072402;28;20063;-58
2024/02/01 13:57:39;;;;;;;10.15;3.75;;;;;;;;;;5068257;28;20060;-60
2024/02/01 14:00:14;;;;;;;14.10;3.47;;;;;;;;;;5072375;28;20056;-60
2024/02/01 14:02:44;;;;;;;14.07;3.92;;;;;;;;;;5060002;28;20053;-59
2024/02/01 14:05:10;;;;;;;13.85;3.67;;;;;;;;;;5061960;28;20521;-58
2024/02/01 14:07:37;;;;;;;12.45;4.28;;;;;;;;;;5065124;28;20053;-59
2024/02/01 14:10:06;;;;;;;13.07;3.78;;;;;;;;;;5073531;28;20052;-60
2024/02/01 14:12:33;;;;;;;12.32;3.58;;;;;;;;;;5060441;28;20061;-59
2024/02/01 14:15:00;;;;;;;14.80;3.50;;;;;;;;;;5053431;28;20049;-58
2024/02/01 14:17:27;;;;;;;14.20;4.00;;;;;;;;;;5068003;28;20124;-59
2024/02/01 14:19:56;;;;;;;18.08;5.07;;;;;;;;;;5059874;28;20052;-60
2024/02/01 14:22:23;;;;;;;17.08;4.95;;;;;;;;;;5052363;28;20041;-58
2024/02/01 14:24:52;;;;;;;14.57;5.45;;;;;;;;;;5064534;28;20052;-58
2024/02/01 14:27:18;;;;;;;17.77;6.15;;;;;;;;;;5068454;28;20565;-59
2024/02/01 14:29:45;;;;;;;16.85;6.00;;;;;;;;;;5053226;28;20052;-58
2024/02/01 14:32:13;;;;;;;18.40;4.93;;;;;;;;;;5056937;28;20052;-59
2024/02/01 14:34:40;;;;;;;17.83;4.43;;;;;;;;;;5064596;28;20052;-58
2024/02/01 14:37:11;;;;;;;12.85;4.32;;;;;;;;;;5066111;28;20387;-59
2024/02/01 14:39:38;;;;;;;12.82;4.07;;;;;;;;;;5072309;28;20056;-59
2024/02/01 14:42:05;;;;;;;16.23;3.95;;;;;;;;;;5066852;28;20044;-59
2024/02/01 14:44:32;;;;;;;13.32;4.57;;;;;;;;;;5069809;28;20504;-59
2024/02/01 14:47:00;;;;;;;13.88;4.07;;;;;;;;;;5071589;28;20486;-58
2024/02/01 14:49:27;;;;;;;12.35;3.95;;;;;;;;;;5062596;28;20052;-59
2024/02/01 14:51:54;;;;;;;16.42;4.95;;;;;;;;;;5069535;28;20076;-58
2024/02/01 14:54:23;;;;;;;23.95;5.10;;;;;;;;;;5059299;28;20064;-58
2024/02/01 14:56:51;;;;;;;14.95;4.35;;;;;;;;;;5055548;28;20048;-58
2024/02/01 14:59:17;;;;;;;14.05;3.90;;;;;;;;;;5071174;28;20071;-57
2024/02/01 15:01:44;;;;;;;14.07;4.30;;;;;;;;;;5060021;28;20056;-58
2024/02/01 15:04:11;;;;;;;15.85;4.30;;;;;;;;;;5054819;28;20065;-58
2024/02/01 15:06:39;;;;;;;11.80;4.28;;;;;;;;;;5055604;28;20382;-58